首页
METAR-TAF:

METAR-TAF

机场 :

Buochs, 瑞士

纬度: 46-58-28N, 经度: 8-23-49E, 海拔: 449米

当前天气观测

该预报发布于15分钟前的01:20 UTC
风速3节,风向西
温度 9°C
湿度 81%
气压 1020 hPa
能见度10公里或以上
1500米以下无云,无积雨云

METAR: LSZC 230120Z AUTO 26003KT CAVOK 09/06 Q1020

时间: 03:35 (01:35 UTC)

预报

该预报发布于11小时和10分钟前的14:25 UTC
预报有效从22日的 15点(UTC)到 22日的 24点(UTC)
风速4节,风向多变
能见度10公里或以上
散云层高于5000英尺
几率 30%
从 22日的 18点(UTC)到 22日的 24点(UTC)
能见度10公里或以上
1500米以下无云,无积雨云
几率 40%
从 22日的 21点(UTC)到 22日的 24点(UTC)
能見度: 4500
轻雾

TAF: LSZC 221425Z 2215/2224 VRB04KT 9999 SCT050 PROB30 2218/2224 CAVOK PROB40 2221/2224 4500 BR

超过4000个机场的气象观测和天气预报(METAR&TAF报告)。

可查询的气象台以黄色和红色小点在地图上表示。

将鼠标移到小点上方,可查看气象台名称。

然后点击查看天气观测和预报。

如需切换地图:点击带黑十字的绿色按钮放大地图;点击带横线的绿色按钮缩小地图;或者点击绿色箭头查看邻近地区的地图。


METAR-TAF: